createdAt,value
2022-08-24T00:00:35.344Z,7.63
2022-08-24T00:03:02.699Z,8.73
2022-08-24T00:05:29.873Z,8.77
2022-08-24T00:07:56.911Z,10.80
2022-08-24T00:10:24.308Z,8.52
2022-08-24T00:12:51.147Z,9.63
2022-08-24T00:15:18.603Z,8.15
2022-08-24T00:17:45.489Z,7.65
2022-08-24T00:20:13.055Z,8.75
2022-08-24T00:22:41.085Z,10.88
2022-08-24T00:25:10.861Z,8.70
2022-08-24T00:27:39.219Z,7.65
2022-08-24T00:30:08.728Z,7.05
2022-08-24T00:32:37.698Z,9.25
2022-08-24T00:35:06.797Z,7.82
2022-08-24T00:37:34.289Z,9.30
2022-08-24T00:40:01.747Z,8.15
2022-08-24T00:42:28.900Z,9.93
2022-08-24T00:44:55.821Z,9.02
2022-08-24T00:47:31.670Z,7.93
2022-08-24T00:50:06.964Z,9.02
2022-08-24T00:52:48.202Z,9.52
2022-08-24T00:55:23.539Z,9.73
2022-08-24T00:57:55.555Z,9.18
2022-08-24T01:00:30.335Z,7.90
2022-08-24T01:03:01.558Z,11.02
2022-08-24T01:05:28.492Z,9.63
2022-08-24T01:07:55.286Z,11.15
2022-08-24T01:10:25.286Z,9.50
2022-08-24T01:12:59.648Z,9.75
2022-08-24T01:15:29.454Z,9.75
2022-08-24T01:18:15.880Z,9.90
2022-08-24T01:20:47.540Z,11.13
2022-08-24T01:23:42.775Z,9.85
2022-08-24T01:26:18.219Z,7.88
2022-08-24T01:28:49.392Z,8.30
2022-08-24T01:31:24.404Z,7.95
2022-08-24T01:33:52.769Z,12.18
2022-08-24T01:36:50.662Z,9.35
2022-08-24T01:39:22.080Z,11.55
2022-08-24T01:41:49.403Z,8.27
2022-08-24T01:44:16.292Z,10.50
2022-08-24T01:46:48.753Z,9.75
2022-08-24T01:49:17.070Z,12.30
2022-08-24T01:51:46.250Z,11.20
2022-08-24T01:54:14.690Z,11.50
2022-08-24T01:56:41.766Z,9.63
2022-08-24T01:59:09.180Z,10.75
2022-08-24T02:01:44.371Z,8.75
2022-08-24T02:04:11.406Z,9.50
2022-08-24T02:06:48.344Z,9.13
2022-08-24T02:09:15.495Z,11.15
2022-08-24T02:11:42.690Z,9.52
2022-08-24T02:14:09.506Z,7.70
2022-08-24T02:16:36.867Z,8.65
2022-08-24T02:19:03.686Z,10.07
2022-08-24T02:21:31.159Z,7.68
2022-08-24T02:23:57.963Z,7.65
2022-08-24T02:26:28.393Z,9.75
2022-08-24T02:31:32.616Z,8.85
2022-08-24T02:33:59.775Z,7.05
2022-08-24T02:36:26.800Z,9.48
2022-08-24T02:38:55.683Z,10.57
2022-08-24T02:41:25.557Z,10.02
2022-08-24T02:43:53.627Z,8.02
2022-08-24T02:46:23.161Z,10.35
2022-08-24T02:48:54.940Z,9.00
2022-08-24T02:51:43.869Z,8.07
2022-08-24T02:54:12.841Z,8.35
2022-08-24T02:56:39.748Z,9.18
2022-08-24T02:59:07.300Z,8.88
2022-08-24T03:01:34.118Z,8.55
2022-08-24T03:04:01.022Z,8.02
2022-08-24T03:06:27.823Z,7.80
2022-08-24T03:08:56.547Z,9.50
2022-08-24T03:11:27.967Z,8.18
2022-08-24T03:13:57.486Z,10.27
2022-08-24T03:16:24.743Z,11.57
2022-08-24T03:18:51.524Z,9.85
2022-08-24T03:21:18.491Z,9.63
2022-08-24T03:23:45.251Z,8.02
2022-08-24T03:26:12.587Z,9.13
2022-08-24T03:28:39.702Z,8.30
2022-08-24T03:31:07.440Z,8.63
2022-08-24T03:33:34.504Z,10.18
2022-08-24T03:36:01.293Z,8.20
2022-08-24T03:38:28.379Z,11.20
2022-08-24T03:40:55.645Z,10.75
2022-08-24T03:43:40.995Z,9.35
2022-08-24T03:46:08.901Z,11.15
2022-08-24T03:48:36.254Z,13.02
2022-08-24T03:51:03.642Z,17.75
2022-08-24T03:53:30.614Z,13.50
2022-08-24T03:55:57.362Z,11.95
2022-08-24T03:58:24.291Z,12.02
2022-08-24T04:00:51.195Z,17.65
2022-08-24T04:03:17.987Z,15.88
2022-08-24T04:05:44.864Z,15.55
2022-08-24T04:08:11.820Z,12.65
2022-08-24T04:10:45.209Z,11.98
2022-08-24T04:13:12.175Z,12.43
2022-08-24T04:15:41.448Z,12.02
2022-08-24T04:18:08.957Z,13.38
2022-08-24T04:20:43.009Z,13.55
2022-08-24T04:23:13.020Z,13.95
2022-08-24T04:25:45.042Z,13.82
2022-08-24T04:28:13.810Z,14.60
2022-08-24T04:30:42.472Z,13.38
2022-08-24T04:33:11.890Z,11.43
2022-08-24T04:35:40.592Z,10.70
2022-08-24T04:38:08.882Z,10.10
2022-08-24T04:40:39.713Z,9.93
2022-08-24T04:43:07.026Z,14.43
2022-08-24T04:45:34.525Z,9.65
2022-08-24T04:48:01.475Z,11.38
2022-08-24T04:50:28.218Z,9.75
2022-08-24T04:52:54.969Z,11.57
2022-08-24T04:55:21.762Z,9.38
2022-08-24T04:57:48.567Z,10.98
2022-08-24T05:00:15.754Z,9.13
2022-08-24T05:02:45.073Z,13.88
2022-08-24T05:05:13.650Z,8.43
2022-08-24T05:07:40.547Z,10.55
2022-08-24T05:10:10.876Z,11.77
2022-08-24T05:12:38.818Z,11.43
2022-08-24T05:15:06.201Z,9.63
2022-08-24T05:17:32.966Z,12.07
2022-08-24T05:19:59.892Z,10.30
2022-08-24T05:22:27.308Z,11.77
2022-08-24T05:24:54.302Z,9.95
2022-08-24T05:27:21.369Z,9.00
2022-08-24T05:29:55.315Z,13.05
2022-08-24T05:32:22.284Z,10.50
2022-08-24T05:34:49.118Z,10.50
2022-08-24T05:37:15.882Z,12.07
2022-08-24T05:39:42.741Z,15.05
2022-08-24T05:42:09.880Z,10.48
2022-08-24T05:44:37.583Z,11.25
2022-08-24T05:47:04.560Z,15.80
2022-08-24T05:49:31.832Z,16.42
2022-08-24T05:51:58.890Z,18.40
2022-08-24T05:54:27.017Z,19.35
2022-08-24T05:56:54.956Z,14.55
2022-08-24T05:59:22.614Z,16.73
2022-08-24T06:01:49.765Z,19.45
2022-08-24T06:04:16.651Z,15.57
2022-08-24T06:06:43.560Z,13.52
2022-08-24T06:09:16.029Z,12.63
2022-08-24T06:11:43.074Z,12.07
2022-08-24T06:14:13.347Z,17.48
2022-08-24T06:16:43.766Z,16.65
2022-08-24T06:19:13.634Z,17.00
2022-08-24T06:21:41.751Z,12.20
2022-08-24T06:24:08.775Z,15.35
2022-08-24T06:26:54.505Z,14.40
2022-08-24T06:29:21.978Z,15.85
2022-08-24T06:31:54.325Z,13.63
2022-08-24T06:34:22.842Z,12.13
2022-08-24T06:36:49.866Z,15.13
2022-08-24T06:39:16.981Z,15.32
2022-08-24T06:41:43.951Z,14.35
2022-08-24T06:44:11.103Z,12.77
2022-08-24T06:46:39.948Z,13.35
2022-08-24T06:49:06.732Z,13.13
2022-08-24T06:51:33.676Z,14.68
2022-08-24T06:54:00.654Z,18.58
2022-08-24T06:56:27.467Z,15.85
2022-08-24T06:58:54.237Z,19.10
2022-08-24T07:01:26.823Z,13.02
2022-08-24T07:03:53.908Z,16.37
2022-08-24T07:06:21.340Z,18.23
2022-08-24T07:08:48.269Z,14.02
2022-08-24T07:11:17.950Z,16.63
2022-08-24T07:13:47.422Z,15.82
2022-08-24T07:16:34.968Z,13.93
2022-08-24T07:19:04.101Z,12.35
2022-08-24T07:21:32.331Z,17.25
2022-08-24T07:24:01.205Z,15.00
2022-08-24T07:26:31.447Z,13.65
2022-08-24T07:29:07.060Z,16.35
2022-08-24T07:31:36.642Z,13.60
2022-08-24T07:34:05.620Z,20.20
2022-08-24T07:36:33.474Z,14.38
2022-08-24T07:39:01.177Z,14.23
2022-08-24T07:42:02.502Z,18.52
2022-08-24T07:44:15.714Z,15.30
2022-08-24T07:46:43.092Z,15.77
2022-08-24T07:49:29.458Z,14.32
2022-08-24T07:51:58.161Z,15.27
2022-08-24T07:54:25.073Z,14.27
2022-08-24T07:56:52.559Z,16.80
2022-08-24T07:59:19.438Z,16.42
2022-08-24T08:01:46.821Z,15.65
2022-08-24T08:04:15.327Z,17.35
2022-08-24T08:06:43.177Z,16.65
2022-08-24T08:09:10.122Z,13.70
2022-08-24T08:11:36.986Z,14.10
2022-08-24T08:14:03.799Z,15.88
2022-08-24T08:16:30.944Z,18.83
2022-08-24T08:19:12.993Z,15.85
2022-08-24T08:22:04.001Z,12.88
2022-08-24T08:24:30.909Z,11.75
2022-08-24T08:26:57.959Z,13.40
2022-08-24T08:29:25.616Z,10.80
2022-08-24T08:31:53.063Z,12.25
2022-08-24T08:34:20.174Z,12.23
2022-08-24T08:36:47.903Z,10.52
2022-08-24T08:39:17.316Z,11.93
2022-08-24T08:42:18.039Z,8.55
2022-08-24T08:44:50.519Z,9.18
2022-08-24T08:47:43.763Z,7.38
2022-08-24T08:50:21.821Z,7.72
2022-08-24T08:53:13.798Z,10.20
2022-08-24T08:55:45.350Z,7.75
2022-08-24T08:58:33.766Z,7.85
2022-08-24T09:01:15.798Z,9.90
2022-08-24T09:04:04.545Z,7.65
2022-08-24T09:06:44.694Z,7.97
2022-08-24T09:09:30.776Z,7.75
2022-08-24T09:12:32.783Z,8.35
2022-08-24T09:15:24.030Z,9.63
2022-08-24T09:18:12.210Z,8.35
2022-08-24T09:20:56.956Z,8.35
2022-08-24T09:23:50.122Z,8.82
2022-08-24T09:26:33.007Z,8.77
2022-08-24T09:29:23.260Z,10.50
2022-08-24T09:32:28.622Z,11.52
2022-08-24T09:35:05.442Z,7.97
2022-08-24T09:37:50.364Z,7.72
2022-08-24T09:40:43.535Z,7.63
2022-08-24T09:43:35.059Z,10.20
2022-08-24T09:46:09.985Z,8.13
2022-08-24T09:49:08.381Z,8.30
2022-08-24T09:51:49.964Z,8.40
2022-08-24T09:55:00.690Z,8.95
2022-08-24T09:58:01.916Z,9.00
2022-08-24T10:00:44.714Z,9.77
2022-08-24T10:03:33.903Z,8.68
2022-08-24T10:06:10.984Z,7.45
2022-08-24T10:08:43.230Z,9.63
2022-08-24T10:11:23.094Z,10.27
2022-08-24T10:14:00.925Z,8.98
2022-08-24T10:16:52.515Z,8.80
2022-08-24T10:19:44.734Z,8.57
2022-08-24T10:22:41.768Z,8.35
2022-08-24T10:25:11.532Z,8.00
2022-08-24T10:28:01.480Z,8.02
2022-08-24T10:30:52.620Z,9.73
2022-08-24T10:33:26.476Z,9.75
2022-08-24T10:36:05.310Z,8.88
2022-08-24T10:39:07.318Z,9.90
2022-08-24T10:41:58.181Z,7.30
2022-08-24T10:44:47.831Z,8.48
2022-08-24T10:47:30.922Z,8.77
2022-08-24T10:50:30.982Z,9.13
2022-08-24T10:53:05.447Z,7.55
2022-08-24T10:55:34.602Z,6.93
2022-08-24T10:58:28.704Z,7.75
2022-08-24T11:00:56.098Z,7.80
2022-08-24T11:03:28.001Z,7.78
2022-08-24T11:05:56.749Z,8.30
2022-08-24T11:08:28.081Z,9.35
2022-08-24T11:11:08.783Z,8.65
2022-08-24T11:13:38.346Z,8.90
2022-08-24T11:16:06.555Z,10.73
2022-08-24T11:18:52.366Z,12.50
2022-08-24T11:21:55.459Z,8.60
2022-08-24T11:24:37.681Z,10.37
2022-08-24T11:27:32.553Z,8.23
2022-08-24T11:30:03.960Z,7.32
2022-08-24T11:32:44.677Z,9.05
2022-08-24T11:35:33.305Z,9.82
2022-08-24T11:38:07.498Z,8.50
2022-08-24T11:40:41.738Z,7.60
2022-08-24T11:43:15.880Z,8.57
2022-08-24T11:45:52.175Z,8.23
2022-08-24T11:48:31.054Z,8.35
2022-08-24T11:51:14.683Z,8.32
2022-08-24T12:06:31.477Z,9.68
2022-08-24T12:09:09.360Z,7.82
2022-08-24T12:11:44.857Z,9.57
2022-08-24T12:14:44.887Z,7.90
2022-08-24T12:17:35.664Z,8.75
2022-08-24T12:20:09.790Z,8.18
2022-08-24T12:22:39.721Z,8.18
2022-08-24T12:25:28.287Z,7.22
2022-08-24T12:27:55.592Z,6.88
2022-08-24T12:30:23.178Z,7.00
2022-08-24T12:33:00.611Z,9.13
2022-08-24T12:35:36.783Z,6.47
2022-08-24T12:38:28.613Z,11.02
2022-08-24T12:41:14.619Z,9.05
2022-08-24T12:44:09.032Z,6.22
2022-08-24T12:46:37.221Z,7.13
2022-08-24T12:49:19.647Z,7.85
2022-08-24T12:52:21.074Z,8.23
2022-08-24T12:55:17.011Z,6.40
2022-08-24T12:58:30.398Z,7.75
2022-08-24T13:00:51.975Z,7.38
2022-08-24T13:03:50.952Z,6.50
2022-08-24T13:06:28.771Z,7.80
2022-08-24T13:09:08.358Z,8.13
2022-08-24T13:11:37.896Z,7.95
2022-08-24T13:14:21.125Z,7.22
2022-08-24T13:16:55.909Z,8.75
2022-08-24T13:19:39.986Z,7.10
2022-08-24T13:22:09.731Z,6.25
2022-08-24T13:24:37.567Z,8.25
2022-08-24T13:27:27.368Z,7.30
2022-08-24T13:30:18.251Z,7.70
2022-08-24T13:32:55.424Z,7.20
2022-08-24T13:35:57.535Z,7.18
2022-08-24T13:38:24.256Z,6.72
2022-08-24T13:40:58.643Z,7.88
2022-08-24T13:43:47.975Z,7.30
2022-08-24T13:46:19.860Z,8.27
2022-08-24T13:48:58.614Z,7.60
2022-08-24T13:51:34.186Z,6.20
2022-08-24T13:54:32.019Z,6.55
2022-08-24T13:57:18.549Z,8.38
2022-08-24T14:00:05.599Z,7.47
2022-08-24T14:02:50.512Z,7.90
2022-08-24T14:05:54.246Z,6.97
2022-08-24T14:08:49.949Z,7.05
2022-08-24T14:11:25.935Z,9.80
2022-08-24T14:14:40.534Z,7.90
2022-08-24T14:17:35.710Z,10.30
2022-08-24T14:20:24.512Z,6.57
2022-08-24T14:23:16.452Z,9.10
2022-08-24T14:25:49.149Z,6.70
2022-08-24T14:28:39.388Z,6.60
2022-08-24T14:31:28.103Z,7.93
2022-08-24T14:34:16.003Z,6.53
2022-08-24T14:36:46.688Z,7.68
2022-08-24T14:39:35.971Z,7.47
2022-08-24T14:42:17.644Z,6.72
2022-08-24T14:45:03.102Z,7.15
2022-08-24T14:48:01.761Z,9.13
2022-08-24T14:50:54.836Z,8.38
2022-08-24T14:54:15.610Z,8.88
2022-08-24T14:57:03.598Z,6.70
2022-08-24T14:59:53.111Z,8.45
2022-08-24T15:02:45.158Z,7.60
2022-08-24T15:05:38.738Z,7.30
2022-08-24T15:08:15.937Z,7.82
2022-08-24T15:11:09.501Z,7.22
2022-08-24T15:14:08.539Z,6.68
2022-08-24T15:16:50.717Z,6.72
2022-08-24T15:19:23.083Z,7.57
2022-08-24T15:22:02.157Z,7.75
2022-08-24T15:24:44.923Z,8.75
2022-08-24T15:27:47.791Z,8.23
2022-08-24T15:30:27.359Z,6.15
2022-08-24T15:33:01.223Z,7.07
2022-08-24T15:35:32.147Z,8.45
2022-08-24T15:38:16.574Z,6.85
2022-08-24T15:40:46.051Z,6.43
2022-08-24T15:43:13.598Z,8.77
2022-08-24T15:45:51.222Z,6.93
2022-08-24T15:48:24.501Z,10.18
2022-08-24T15:50:52.901Z,6.25
2022-08-24T15:53:29.458Z,8.68
2022-08-24T15:55:56.852Z,8.43
2022-08-24T15:58:37.158Z,7.85
2022-08-24T16:01:28.224Z,7.28
2022-08-24T16:03:56.711Z,6.90
2022-08-24T16:06:35.523Z,7.35
2022-08-24T16:09:32.678Z,7.13
2022-08-24T16:12:12.701Z,7.78
2022-08-24T16:14:52.504Z,6.22
2022-08-24T16:17:34.663Z,6.55
2022-08-24T16:20:24.129Z,6.53
2022-08-24T16:22:58.454Z,6.90
2022-08-24T16:25:27.379Z,6.70
2022-08-24T16:28:00.489Z,9.38
2022-08-24T16:30:43.503Z,8.10
2022-08-24T16:33:11.571Z,7.32
2022-08-24T16:35:38.795Z,6.60
2022-08-24T16:38:05.856Z,6.30
2022-08-24T16:40:34.411Z,7.95
2022-08-24T16:43:01.323Z,7.90
2022-08-24T16:45:28.879Z,5.70
2022-08-24T16:47:57.731Z,6.90
2022-08-24T16:50:27.164Z,7.68
2022-08-24T16:52:54.566Z,6.90
2022-08-24T16:55:21.963Z,8.57
2022-08-24T16:57:49.823Z,6.47
2022-08-24T17:00:19.189Z,7.25
2022-08-24T17:02:48.058Z,6.78
2022-08-24T17:05:17.825Z,7.60
2022-08-24T17:07:45.103Z,7.80
2022-08-24T17:10:15.434Z,7.80
2022-08-24T17:12:42.734Z,8.55
2022-08-24T17:15:11.855Z,8.68
2022-08-24T17:17:40.435Z,6.85
2022-08-24T17:20:11.829Z,9.20
2022-08-24T17:22:38.863Z,7.20
2022-08-24T17:25:05.778Z,7.45
2022-08-24T17:27:34.020Z,7.50
2022-08-24T17:30:02.705Z,8.50
2022-08-24T17:32:29.641Z,8.27
2022-08-24T17:34:57.016Z,7.45
2022-08-24T17:37:24.581Z,8.68
2022-08-24T17:39:57.632Z,8.13
2022-08-24T17:45:12.976Z,9.30
2022-08-24T17:47:41.355Z,9.23
2022-08-24T17:50:12.768Z,10.57
2022-08-24T17:52:40.462Z,7.75
2022-08-24T17:55:09.506Z,7.57
2022-08-24T17:57:37.356Z,8.20
2022-08-24T18:00:06.593Z,7.88
2022-08-24T18:02:34.895Z,9.60
2022-08-24T18:05:02.603Z,12.00
2022-08-24T18:07:49.433Z,8.20
2022-08-24T18:10:21.079Z,11.55
2022-08-24T18:12:48.128Z,8.82
2022-08-24T18:15:14.973Z,9.35
2022-08-24T18:17:47.604Z,8.50
2022-08-24T18:20:16.591Z,10.10
2022-08-24T18:22:47.550Z,8.38
2022-08-24T18:25:22.869Z,8.88
2022-08-24T18:27:52.423Z,8.77
2022-08-24T18:30:30.618Z,9.25
2022-08-24T18:33:01.643Z,9.60
2022-08-24T18:35:30.658Z,8.98
2022-08-24T18:37:57.476Z,9.68
2022-08-24T18:40:26.765Z,13.27
2022-08-24T18:43:01.683Z,10.93
2022-08-24T18:45:31.452Z,9.15
2022-08-24T18:47:58.815Z,9.80
2022-08-24T18:50:28.831Z,10.40
2022-08-24T18:52:57.478Z,10.23
2022-08-24T18:55:25.426Z,8.75
2022-08-24T18:57:52.370Z,14.57
2022-08-24T19:00:19.538Z,10.68
2022-08-24T19:02:47.340Z,12.18
2022-08-24T19:05:21.271Z,9.93
2022-08-24T19:07:51.275Z,11.60
2022-08-24T19:10:24.158Z,11.43
2022-08-24T19:13:00.052Z,10.77
2022-08-24T19:15:34.664Z,11.38
2022-08-24T19:18:09.620Z,10.13
2022-08-24T19:20:39.088Z,11.25
2022-08-24T19:23:13.021Z,11.00
2022-08-24T19:25:44.365Z,10.30
2022-08-24T19:28:12.057Z,11.48
2022-08-24T19:30:39.470Z,11.82
2022-08-24T19:33:10.486Z,11.75
2022-08-24T19:35:41.085Z,10.60
2022-08-24T19:38:08.051Z,12.90
2022-08-24T19:40:34.930Z,10.32
2022-08-24T19:43:02.961Z,10.85
2022-08-24T19:45:49.436Z,10.52
2022-08-24T19:48:17.067Z,11.88
2022-08-24T19:50:44.157Z,10.50
2022-08-24T19:53:10.975Z,11.43
2022-08-24T19:55:38.267Z,12.20
2022-08-24T19:58:30.125Z,13.68
2022-08-24T20:01:02.684Z,13.82
2022-08-24T20:03:29.665Z,14.83
2022-08-24T20:05:57.148Z,15.88
2022-08-24T20:08:23.909Z,9.85
2022-08-24T20:10:52.936Z,11.00
2022-08-24T20:13:19.894Z,12.80
2022-08-24T20:15:46.976Z,12.23
2022-08-24T20:18:14.504Z,14.20
2022-08-24T20:20:41.283Z,12.93
2022-08-24T20:23:08.674Z,14.38
2022-08-24T20:25:37.194Z,11.48
2022-08-24T20:28:28.270Z,12.60
2022-08-24T20:30:53.208Z,12.18
2022-08-24T20:33:27.672Z,10.27
2022-08-24T20:35:56.298Z,14.70
2022-08-24T20:38:23.880Z,14.65
2022-08-24T20:40:52.023Z,11.57
2022-08-24T20:43:19.672Z,14.23
2022-08-24T20:45:49.082Z,12.43
2022-08-24T20:48:17.375Z,11.43
2022-08-24T20:50:44.211Z,12.15
2022-08-24T20:53:11.928Z,11.70
2022-08-24T20:55:40.493Z,10.50
2022-08-24T20:58:07.959Z,14.48
2022-08-24T21:00:34.943Z,12.88
2022-08-24T21:03:01.800Z,12.52
2022-08-24T21:05:28.770Z,12.50
2022-08-24T21:07:57.780Z,13.27
2022-08-24T21:10:26.828Z,11.80
2022-08-24T21:12:54.222Z,12.57
2022-08-24T21:15:22.418Z,11.85
2022-08-24T21:17:50.273Z,12.55
2022-08-24T21:20:20.157Z,13.75
2022-08-24T21:22:47.055Z,12.02
2022-08-24T21:25:14.674Z,11.70
2022-08-24T21:27:44.217Z,15.20
2022-08-24T21:30:14.208Z,11.27
2022-08-24T21:33:00.275Z,13.23
2022-08-24T21:35:27.195Z,11.88
2022-08-24T21:37:54.335Z,14.00
2022-08-24T21:40:21.947Z,11.48
2022-08-24T21:42:49.354Z,15.85
2022-08-24T21:45:17.135Z,14.63
2022-08-24T21:47:44.715Z,15.40
2022-08-24T21:50:12.116Z,12.20
2022-08-24T21:52:38.943Z,13.02
2022-08-24T21:55:09.635Z,12.25
2022-08-24T21:57:40.344Z,10.98
2022-08-24T22:00:13.519Z,10.93
2022-08-24T22:02:40.863Z,12.38
2022-08-24T22:05:09.354Z,12.63
2022-08-24T22:07:36.657Z,12.63
2022-08-24T22:10:05.096Z,13.55
2022-08-24T22:12:32.237Z,14.00
2022-08-24T22:14:59.111Z,12.77
2022-08-24T22:17:26.277Z,13.15
2022-08-24T22:19:53.476Z,17.45
2022-08-24T22:22:20.699Z,14.38
2022-08-24T22:24:47.804Z,11.88
2022-08-24T22:27:15.406Z,15.52
2022-08-24T22:29:42.260Z,12.57
2022-08-24T22:32:09.055Z,11.95
2022-08-24T22:34:39.043Z,12.90
2022-08-24T22:37:06.201Z,14.57
2022-08-24T22:39:33.337Z,14.27
2022-08-24T22:42:00.120Z,15.32
2022-08-24T22:44:27.735Z,12.95
2022-08-24T22:47:00.391Z,11.52
2022-08-24T22:49:30.243Z,13.20
2022-08-24T22:51:57.626Z,12.27
2022-08-24T22:54:25.500Z,12.68
2022-08-24T22:56:54.098Z,11.15
2022-08-24T22:59:22.350Z,13.98
2022-08-24T23:01:51.616Z,13.15
2022-08-24T23:04:23.352Z,13.27
2022-08-24T23:06:50.940Z,13.68
2022-08-24T23:09:18.779Z,12.68
2022-08-24T23:11:46.301Z,14.77
2022-08-24T23:14:14.333Z,14.63
2022-08-24T23:16:47.860Z,13.70
2022-08-24T23:19:39.451Z,12.25
2022-08-24T23:22:08.571Z,12.77
2022-08-24T23:24:35.907Z,12.48
2022-08-24T23:27:04.031Z,12.00
2022-08-24T23:29:31.088Z,11.23
2022-08-24T23:31:58.073Z,11.55
2022-08-24T23:34:24.850Z,12.95
2022-08-24T23:36:51.861Z,12.18
2022-08-24T23:39:21.068Z,11.27
2022-08-24T23:41:49.172Z,11.50
2022-08-24T23:44:20.523Z,13.45
2022-08-24T23:46:47.754Z,11.43
2022-08-24T23:49:17.183Z,13.95
2022-08-24T23:51:44.016Z,15.23
2022-08-24T23:54:10.978Z,11.20
2022-08-24T23:56:42.050Z,12.73
2022-08-24T23:59:15.318Z,10.00
